sensor_id;sensor_type;location;lat;lon;timestamp;P1;durP1;ratioP1;P2;durP2;ratioP2
77158;SDS011;66129;45.890;13.714;2023-05-10T00:02:06;3.88;;;2.25;;
77158;SDS011;66129;45.890;13.714;2023-05-10T00:04:32;5.13;;;2.22;;
77158;SDS011;66129;45.890;13.714;2023-05-10T00:06:58;2.78;;;2.00;;
77158;SDS011;66129;45.890;13.714;2023-05-10T00:09:23;4.07;;;2.00;;
77158;SDS011;66129;45.890;13.714;2023-05-10T00:11:49;4.53;;;2.20;;
77158;SDS011;66129;45.890;13.714;2023-05-10T00:14:14;3.05;;;1.88;;
77158;SDS011;66129;45.890;13.714;2023-05-10T00:16:40;9.07;;;2.10;;
77158;SDS011;66129;45.890;13.714;2023-05-10T00:19:05;3.63;;;2.15;;
77158;SDS011;66129;45.890;13.714;2023-05-10T00:21:31;5.13;;;2.38;;
77158;SDS011;66129;45.890;13.714;2023-05-10T00:23:58;3.10;;;1.85;;
77158;SDS011;66129;45.890;13.714;2023-05-10T00:26:24;3.38;;;2.25;;
77158;SDS011;66129;45.890;13.714;2023-05-10T00:28:49;4.15;;;2.50;;
77158;SDS011;66129;45.890;13.714;2023-05-10T00:31:15;4.15;;;2.22;;
77158;SDS011;66129;45.890;13.714;2023-05-10T00:33:40;3.63;;;2.20;;
77158;SDS011;66129;45.890;13.714;2023-05-10T00:36:06;3.05;;;2.10;;
77158;SDS011;66129;45.890;13.714;2023-05-10T00:38:32;4.03;;;2.45;;
77158;SDS011;66129;45.890;13.714;2023-05-10T00:40:58;3.42;;;2.30;;
77158;SDS011;66129;45.890;13.714;2023-05-10T00:43:24;2.97;;;2.03;;
77158;SDS011;66129;45.890;13.714;2023-05-10T00:45:49;3.40;;;2.25;;
77158;SDS011;66129;45.890;13.714;2023-05-10T00:48:15;3.65;;;2.40;;
77158;SDS011;66129;45.890;13.714;2023-05-10T00:50:41;4.90;;;2.40;;
77158;SDS011;66129;45.890;13.714;2023-05-10T00:53:06;4.80;;;2.08;;
77158;SDS011;66129;45.890;13.714;2023-05-10T00:55:32;3.28;;;2.20;;
77158;SDS011;66129;45.890;13.714;2023-05-10T00:57:58;2.78;;;1.92;;
77158;SDS011;66129;45.890;13.714;2023-05-10T01:00:23;4.68;;;2.35;;
77158;SDS011;66129;45.890;13.714;2023-05-10T01:02:50;3.75;;;2.22;;
77158;SDS011;66129;45.890;13.714;2023-05-10T01:05:17;3.20;;;2.05;;
77158;SDS011;66129;45.890;13.714;2023-05-10T01:07:43;3.90;;;2.15;;
77158;SDS011;66129;45.890;13.714;2023-05-10T01:10:08;4.72;;;2.60;;
77158;SDS011;66129;45.890;13.714;2023-05-10T01:12:35;3.22;;;2.17;;
77158;SDS011;66129;45.890;13.714;2023-05-10T01:15:03;3.25;;;2.10;;
77158;SDS011;66129;45.890;13.714;2023-05-10T01:17:37;5.32;;;2.65;;
77158;SDS011;66129;45.890;13.714;2023-05-10T01:20:04;3.40;;;2.47;;
77158;SDS011;66129;45.890;13.714;2023-05-10T01:34:05;5.03;;;2.70;;
77158;SDS011;66129;45.890;13.714;2023-05-10T01:39:17;3.60;;;2.25;;
77158;SDS011;66129;45.890;13.714;2023-05-10T01:41:51;3.28;;;2.15;;
77158;SDS011;66129;45.890;13.714;2023-05-10T01:44:31;4.00;;;2.50;;
77158;SDS011;66129;45.890;13.714;2023-05-10T01:47:05;3.97;;;2.20;;
77158;SDS011;66129;45.890;13.714;2023-05-10T01:49:47;4.45;;;2.30;;
77158;SDS011;66129;45.890;13.714;2023-05-10T01:52:17;4.13;;;2.53;;
77158;SDS011;66129;45.890;13.714;2023-05-10T01:54:48;4.43;;;2.53;;
77158;SDS011;66129;45.890;13.714;2023-05-10T01:57:18;3.60;;;2.50;;
77158;SDS011;66129;45.890;13.714;2023-05-10T01:59:47;4.15;;;2.50;;
77158;SDS011;66129;45.890;13.714;2023-05-10T02:02:17;4.00;;;2.60;;
77158;SDS011;66129;45.890;13.714;2023-05-10T02:04:46;4.25;;;2.55;;
77158;SDS011;66129;45.890;13.714;2023-05-10T02:07:14;3.85;;;2.30;;
77158;SDS011;66129;45.890;13.714;2023-05-10T02:09:41;4.22;;;2.92;;
77158;SDS011;66129;45.890;13.714;2023-05-10T02:12:12;3.53;;;2.38;;
77158;SDS011;66129;45.890;13.714;2023-05-10T02:14:39;4.20;;;2.50;;
77158;SDS011;66129;45.890;13.714;2023-05-10T02:17:07;5.18;;;2.55;;
77158;SDS011;66129;45.890;13.714;2023-05-10T02:19:35;5.90;;;2.97;;
77158;SDS011;66129;45.890;13.714;2023-05-10T02:22:03;3.97;;;2.65;;
77158;SDS011;66129;45.890;13.714;2023-05-10T02:24:30;4.40;;;2.45;;
77158;SDS011;66129;45.890;13.714;2023-05-10T02:26:58;5.68;;;2.67;;
77158;SDS011;66129;45.890;13.714;2023-05-10T02:29:25;4.75;;;2.50;;
77158;SDS011;66129;45.890;13.714;2023-05-10T02:31:52;3.92;;;2.40;;
77158;SDS011;66129;45.890;13.714;2023-05-10T02:34:19;5.50;;;2.80;;
77158;SDS011;66129;45.890;13.714;2023-05-10T02:36:47;4.85;;;2.60;;
77158;SDS011;66129;45.890;13.714;2023-05-10T02:39:13;3.67;;;2.25;;
77158;SDS011;66129;45.890;13.714;2023-05-10T02:41:40;4.97;;;2.58;;
77158;SDS011;66129;45.890;13.714;2023-05-10T02:44:08;4.28;;;2.63;;
77158;SDS011;66129;45.890;13.714;2023-05-10T02:46:35;3.47;;;2.30;;
77158;SDS011;66129;45.890;13.714;2023-05-10T02:49:02;3.33;;;2.45;;
77158;SDS011;66129;45.890;13.714;2023-05-10T02:51:30;3.67;;;2.67;;
77158;SDS011;66129;45.890;13.714;2023-05-10T02:53:57;3.40;;;2.35;;
77158;SDS011;66129;45.890;13.714;2023-05-10T02:56:30;5.25;;;2.30;;
77158;SDS011;66129;45.890;13.714;2023-05-10T02:58:58;5.30;;;3.13;;
77158;SDS011;66129;45.890;13.714;2023-05-10T03:01:23;4.00;;;2.83;;
77158;SDS011;66129;45.890;13.714;2023-05-10T03:03:49;4.05;;;2.80;;
77158;SDS011;66129;45.890;13.714;2023-05-10T03:06:14;7.35;;;2.67;;
77158;SDS011;66129;45.890;13.714;2023-05-10T03:08:41;4.35;;;2.80;;
77158;SDS011;66129;45.890;13.714;2023-05-10T03:11:23;3.90;;;2.72;;
77158;SDS011;66129;45.890;13.714;2023-05-10T03:14:10;3.75;;;2.13;;
77158;SDS011;66129;45.890;13.714;2023-05-10T03:16:46;3.90;;;2.22;;
77158;SDS011;66129;45.890;13.714;2023-05-10T03:19:17;4.57;;;2.60;;
77158;SDS011;66129;45.890;13.714;2023-05-10T03:21:53;3.65;;;2.13;;
77158;SDS011;66129;45.890;13.714;2023-05-10T03:24:24;3.60;;;2.40;;
77158;SDS011;66129;45.890;13.714;2023-05-10T03:26:52;3.78;;;2.53;;
77158;SDS011;66129;45.890;13.714;2023-05-10T03:29:21;6.93;;;2.83;;
77158;SDS011;66129;45.890;13.714;2023-05-10T03:31:50;5.45;;;2.42;;
77158;SDS011;66129;45.890;13.714;2023-05-10T03:34:16;5.13;;;2.65;;
77158;SDS011;66129;45.890;13.714;2023-05-10T03:36:42;4.75;;;2.65;;
77158;SDS011;66129;45.890;13.714;2023-05-10T03:39:08;3.63;;;2.33;;
77158;SDS011;66129;45.890;13.714;2023-05-10T03:41:33;3.80;;;2.58;;
77158;SDS011;66129;45.890;13.714;2023-05-10T03:43:59;5.43;;;2.30;;
77158;SDS011;66129;45.890;13.714;2023-05-10T03:46:25;4.40;;;2.50;;
77158;SDS011;66129;45.890;13.714;2023-05-10T03:48:50;3.20;;;2.28;;
77158;SDS011;66129;45.890;13.714;2023-05-10T03:51:15;3.25;;;2.40;;
77158;SDS011;66129;45.890;13.714;2023-05-10T03:53:41;4.60;;;2.60;;
77158;SDS011;66129;45.890;13.714;2023-05-10T03:56:06;4.07;;;2.20;;
77158;SDS011;66129;45.890;13.714;2023-05-10T03:58:32;4.13;;;2.53;;
77158;SDS011;66129;45.890;13.714;2023-05-10T04:00:57;4.40;;;2.40;;
77158;SDS011;66129;45.890;13.714;2023-05-10T04:03:22;3.92;;;2.30;;
77158;SDS011;66129;45.890;13.714;2023-05-10T04:05:48;4.97;;;2.72;;
77158;SDS011;66129;45.890;13.714;2023-05-10T04:08:13;3.97;;;2.72;;
77158;SDS011;66129;45.890;13.714;2023-05-10T04:10:41;3.67;;;2.63;;
77158;SDS011;66129;45.890;13.714;2023-05-10T04:13:06;4.20;;;2.33;;
77158;SDS011;66129;45.890;13.714;2023-05-10T04:15:32;3.90;;;2.60;;
77158;SDS011;66129;45.890;13.714;2023-05-10T04:17:57;3.22;;;2.38;;
77158;SDS011;66129;45.890;13.714;2023-05-10T04:20:23;5.32;;;2.83;;
77158;SDS011;66129;45.890;13.714;2023-05-10T04:22:48;4.88;;;2.90;;
77158;SDS011;66129;45.890;13.714;2023-05-10T04:25:14;3.80;;;2.40;;
77158;SDS011;66129;45.890;13.714;2023-05-10T04:27:42;3.55;;;2.50;;
77158;SDS011;66129;45.890;13.714;2023-05-10T04:30:08;4.43;;;2.70;;
77158;SDS011;66129;45.890;13.714;2023-05-10T04:32:33;5.40;;;2.83;;
77158;SDS011;66129;45.890;13.714;2023-05-10T04:34:59;3.47;;;2.40;;
77158;SDS011;66129;45.890;13.714;2023-05-10T04:37:24;4.65;;;2.70;;
77158;SDS011;66129;45.890;13.714;2023-05-10T04:39:50;4.13;;;2.58;;
77158;SDS011;66129;45.890;13.714;2023-05-10T04:42:15;4.00;;;2.58;;
77158;SDS011;66129;45.890;13.714;2023-05-10T04:44:41;3.80;;;2.50;;
77158;SDS011;66129;45.890;13.714;2023-05-10T04:47:06;4.00;;;2.42;;
77158;SDS011;66129;45.890;13.714;2023-05-10T04:49:32;4.82;;;2.70;;
77158;SDS011;66129;45.890;13.714;2023-05-10T04:51:57;5.10;;;2.67;;
77158;SDS011;66129;45.890;13.714;2023-05-10T04:54:23;6.18;;;3.00;;
77158;SDS011;66129;45.890;13.714;2023-05-10T04:56:57;5.47;;;2.90;;
77158;SDS011;66129;45.890;13.714;2023-05-10T04:59:26;3.60;;;2.55;;
77158;SDS011;66129;45.890;13.714;2023-05-10T05:01:59;4.70;;;2.50;;
77158;SDS011;66129;45.890;13.714;2023-05-10T05:04:24;6.95;;;2.70;;
77158;SDS011;66129;45.890;13.714;2023-05-10T05:06:50;4.63;;;2.95;;
77158;SDS011;66129;45.890;13.714;2023-05-10T05:09:15;6.38;;;3.80;;
77158;SDS011;66129;45.890;13.714;2023-05-10T05:11:41;3.58;;;2.60;;
77158;SDS011;66129;45.890;13.714;2023-05-10T05:14:06;3.72;;;2.63;;
77158;SDS011;66129;45.890;13.714;2023-05-10T05:16:39;3.15;;;2.20;;
77158;SDS011;66129;45.890;13.714;2023-05-10T05:19:05;4.60;;;2.47;;
77158;SDS011;66129;45.890;13.714;2023-05-10T05:21:36;3.95;;;2.65;;
77158;SDS011;66129;45.890;13.714;2023-05-10T05:24:02;4.20;;;2.78;;
77158;SDS011;66129;45.890;13.714;2023-05-10T05:26:31;3.60;;;2.50;;
77158;SDS011;66129;45.890;13.714;2023-05-10T05:28:56;4.05;;;2.88;;
77158;SDS011;66129;45.890;13.714;2023-05-10T05:31:27;4.63;;;2.60;;
77158;SDS011;66129;45.890;13.714;2023-05-10T05:33:53;4.45;;;2.63;;
77158;SDS011;66129;45.890;13.714;2023-05-10T05:36:20;6.57;;;3.13;;
77158;SDS011;66129;45.890;13.714;2023-05-10T05:38:49;4.25;;;2.67;;
77158;SDS011;66129;45.890;13.714;2023-05-10T05:41:24;4.60;;;2.95;;
77158;SDS011;66129;45.890;13.714;2023-05-10T05:44:04;6.00;;;2.60;;
77158;SDS011;66129;45.890;13.714;2023-05-10T05:46:35;4.75;;;2.67;;
77158;SDS011;66129;45.890;13.714;2023-05-10T05:49:10;4.40;;;2.75;;
77158;SDS011;66129;45.890;13.714;2023-05-10T05:51:38;4.53;;;2.78;;
77158;SDS011;66129;45.890;13.714;2023-05-10T05:54:04;4.30;;;2.53;;
77158;SDS011;66129;45.890;13.714;2023-05-10T05:56:37;4.07;;;2.53;;
77158;SDS011;66129;45.890;13.714;2023-05-10T05:59:03;7.60;;;2.70;;
77158;SDS011;66129;45.890;13.714;2023-05-10T06:01:28;3.92;;;2.58;;
77158;SDS011;66129;45.890;13.714;2023-05-10T06:03:54;4.15;;;2.53;;
77158;SDS011;66129;45.890;13.714;2023-05-10T06:06:19;4.10;;;2.50;;
77158;SDS011;66129;45.890;13.714;2023-05-10T06:08:44;4.85;;;2.80;;
77158;SDS011;66129;45.890;13.714;2023-05-10T06:11:10;5.50;;;3.30;;
77158;SDS011;66129;45.890;13.714;2023-05-10T06:13:35;4.97;;;2.78;;
77158;SDS011;66129;45.890;13.714;2023-05-10T06:16:02;5.10;;;2.90;;
77158;SDS011;66129;45.890;13.714;2023-05-10T06:18:28;5.47;;;3.15;;
77158;SDS011;66129;45.890;13.714;2023-05-10T06:20:53;4.38;;;2.55;;
77158;SDS011;66129;45.890;13.714;2023-05-10T06:23:18;6.65;;;3.47;;
77158;SDS011;66129;45.890;13.714;2023-05-10T06:25:46;5.60;;;2.75;;
77158;SDS011;66129;45.890;13.714;2023-05-10T06:28:12;5.30;;;2.72;;
77158;SDS011;66129;45.890;13.714;2023-05-10T06:30:37;7.18;;;3.00;;
77158;SDS011;66129;45.890;13.714;2023-05-10T06:33:03;4.53;;;2.97;;
77158;SDS011;66129;45.890;13.714;2023-05-10T06:35:28;4.95;;;2.55;;
77158;SDS011;66129;45.890;13.714;2023-05-10T06:37:54;4.18;;;2.50;;
77158;SDS011;66129;45.890;13.714;2023-05-10T06:40:20;5.50;;;2.75;;
77158;SDS011;66129;45.890;13.714;2023-05-10T06:42:46;4.97;;;2.53;;
77158;SDS011;66129;45.890;13.714;2023-05-10T06:45:12;6.35;;;3.30;;
77158;SDS011;66129;45.890;13.714;2023-05-10T06:47:39;5.07;;;3.10;;
77158;SDS011;66129;45.890;13.714;2023-05-10T06:50:05;4.70;;;2.85;;
77158;SDS011;66129;45.890;13.714;2023-05-10T06:52:31;6.03;;;2.90;;
77158;SDS011;66129;45.890;13.714;2023-05-10T06:54:57;5.20;;;3.10;;
77158;SDS011;66129;45.890;13.714;2023-05-10T06:57:23;4.47;;;2.95;;
77158;SDS011;66129;45.890;13.714;2023-05-10T06:59:49;4.93;;;3.25;;
77158;SDS011;66129;45.890;13.714;2023-05-10T07:02:14;8.30;;;3.47;;
77158;SDS011;66129;45.890;13.714;2023-05-10T07:04:40;4.25;;;3.03;;
77158;SDS011;66129;45.890;13.714;2023-05-10T07:07:05;4.35;;;3.08;;
77158;SDS011;66129;45.890;13.714;2023-05-10T07:09:31;4.82;;;2.92;;
77158;SDS011;66129;45.890;13.714;2023-05-10T07:11:57;6.57;;;3.05;;
77158;SDS011;66129;45.890;13.714;2023-05-10T07:14:37;10.27;;;3.20;;
77158;SDS011;66129;45.890;13.714;2023-05-10T07:17:08;5.03;;;3.00;;
77158;SDS011;66129;45.890;13.714;2023-05-10T07:19:39;4.20;;;2.50;;
77158;SDS011;66129;45.890;13.714;2023-05-10T07:22:07;4.85;;;2.90;;
77158;SDS011;66129;45.890;13.714;2023-05-10T07:24:43;6.88;;;3.10;;
77158;SDS011;66129;45.890;13.714;2023-05-10T07:27:13;6.97;;;3.25;;
77158;SDS011;66129;45.890;13.714;2023-05-10T07:29:44;4.82;;;3.13;;
77158;SDS011;66129;45.890;13.714;2023-05-10T07:32:13;7.03;;;2.90;;
77158;SDS011;66129;45.890;13.714;2023-05-10T07:34:41;4.60;;;2.58;;
77158;SDS011;66129;45.890;13.714;2023-05-10T07:37:15;3.92;;;2.42;;
77158;SDS011;66129;45.890;13.714;2023-05-10T07:39:41;4.93;;;2.60;;
77158;SDS011;66129;45.890;13.714;2023-05-10T07:42:06;3.95;;;2.42;;
77158;SDS011;66129;45.890;13.714;2023-05-10T07:44:33;4.45;;;2.72;;
77158;SDS011;66129;45.890;13.714;2023-05-10T07:46:58;4.05;;;2.40;;
77158;SDS011;66129;45.890;13.714;2023-05-10T07:49:53;4.32;;;2.97;;
77158;SDS011;66129;45.890;13.714;2023-05-10T07:52:19;4.20;;;2.88;;
77158;SDS011;66129;45.890;13.714;2023-05-10T07:54:47;5.10;;;2.80;;
77158;SDS011;66129;45.890;13.714;2023-05-10T08:00:17;6.50;;;2.83;;
77158;SDS011;66129;45.890;13.714;2023-05-10T08:03:12;4.82;;;2.90;;
77158;SDS011;66129;45.890;13.714;2023-05-10T08:05:43;5.63;;;3.22;;
77158;SDS011;66129;45.890;13.714;2023-05-10T08:08:14;6.82;;;3.30;;
77158;SDS011;66129;45.890;13.714;2023-05-10T08:10:40;4.82;;;3.08;;
77158;SDS011;66129;45.890;13.714;2023-05-10T08:13:17;4.70;;;3.03;;
77158;SDS011;66129;45.890;13.714;2023-05-10T08:15:43;5.93;;;3.15;;
77158;SDS011;66129;45.890;13.714;2023-05-10T08:18:20;5.88;;;3.35;;
77158;SDS011;66129;45.890;13.714;2023-05-10T08:21:59;5.18;;;3.22;;
77158;SDS011;66129;45.890;13.714;2023-05-10T08:24:40;5.75;;;3.15;;
77158;SDS011;66129;45.890;13.714;2023-05-10T08:36:56;4.75;;;3.35;;
77158;SDS011;66129;45.890;13.714;2023-05-10T08:39:22;6.60;;;3.30;;
77158;SDS011;66129;45.890;13.714;2023-05-10T08:45:03;4.30;;;2.88;;
77158;SDS011;66129;45.890;13.714;2023-05-10T08:47:30;5.15;;;3.13;;
77158;SDS011;66129;45.890;13.714;2023-05-10T08:49:55;5.93;;;3.25;;
77158;SDS011;66129;45.890;13.714;2023-05-10T08:52:24;6.05;;;3.20;;
77158;SDS011;66129;45.890;13.714;2023-05-10T08:54:58;5.75;;;3.50;;
77158;SDS011;66129;45.890;13.714;2023-05-10T08:57:23;4.75;;;3.40;;
77158;SDS011;66129;45.890;13.714;2023-05-10T08:59:49;5.88;;;3.40;;
77158;SDS011;66129;45.890;13.714;2023-05-10T09:02:14;7.22;;;3.05;;
77158;SDS011;66129;45.890;13.714;2023-05-10T09:04:50;4.78;;;3.10;;
77158;SDS011;66129;45.890;13.714;2023-05-10T09:07:16;5.25;;;3.03;;
77158;SDS011;66129;45.890;13.714;2023-05-10T09:09:42;4.85;;;3.08;;
77158;SDS011;66129;45.890;13.714;2023-05-10T09:12:08;6.55;;;3.58;;
77158;SDS011;66129;45.890;13.714;2023-05-10T09:14:36;5.68;;;3.13;;
77158;SDS011;66129;45.890;13.714;2023-05-10T09:17:23;4.65;;;3.25;;
77158;SDS011;66129;45.890;13.714;2023-05-10T09:19:50;4.63;;;3.40;;
77158;SDS011;66129;45.890;13.714;2023-05-10T09:22:21;4.20;;;3.15;;
77158;SDS011;66129;45.890;13.714;2023-05-10T09:24:47;4.38;;;3.22;;
77158;SDS011;66129;45.890;13.714;2023-05-10T09:27:12;5.88;;;3.92;;
77158;SDS011;66129;45.890;13.714;2023-05-10T09:29:39;6.65;;;3.78;;
77158;SDS011;66129;45.890;13.714;2023-05-10T09:32:07;6.15;;;3.47;;
77158;SDS011;66129;45.890;13.714;2023-05-10T09:34:33;6.28;;;3.75;;
77158;SDS011;66129;45.890;13.714;2023-05-10T09:37:09;6.40;;;3.75;;
77158;SDS011;66129;45.890;13.714;2023-05-10T09:39:36;6.95;;;4.43;;
77158;SDS011;66129;45.890;13.714;2023-05-10T09:42:03;5.43;;;3.80;;
77158;SDS011;66129;45.890;13.714;2023-05-10T09:44:31;7.40;;;4.38;;
77158;SDS011;66129;45.890;13.714;2023-05-10T09:47:01;6.38;;;4.35;;
77158;SDS011;66129;45.890;13.714;2023-05-10T09:49:27;6.57;;;4.07;;
77158;SDS011;66129;45.890;13.714;2023-05-10T09:52:02;6.03;;;4.05;;
77158;SDS011;66129;45.890;13.714;2023-05-10T09:54:32;5.80;;;3.22;;
77158;SDS011;66129;45.890;13.714;2023-05-10T09:56:58;6.35;;;3.90;;
77158;SDS011;66129;45.890;13.714;2023-05-10T09:59:24;5.97;;;3.92;;
77158;SDS011;66129;45.890;13.714;2023-05-10T10:01:54;8.68;;;4.63;;
77158;SDS011;66129;45.890;13.714;2023-05-10T10:04:21;8.30;;;4.25;;
77158;SDS011;66129;45.890;13.714;2023-05-10T10:07:02;6.95;;;3.88;;
77158;SDS011;66129;45.890;13.714;2023-05-10T10:09:29;8.88;;;4.45;;
77158;SDS011;66129;45.890;13.714;2023-05-10T10:12:01;9.40;;;4.93;;
77158;SDS011;66129;45.890;13.714;2023-05-10T10:14:30;7.10;;;4.43;;
77158;SDS011;66129;45.890;13.714;2023-05-10T10:16:56;6.68;;;4.35;;
77158;SDS011;66129;45.890;13.714;2023-05-10T10:19:24;7.53;;;5.32;;
77158;SDS011;66129;45.890;13.714;2023-05-10T10:21:51;7.10;;;4.82;;
77158;SDS011;66129;45.890;13.714;2023-05-10T10:24:17;9.15;;;5.25;;
77158;SDS011;66129;45.890;13.714;2023-05-10T10:26:42;7.35;;;5.60;;
77158;SDS011;66129;45.890;13.714;2023-05-10T10:34:34;7.03;;;5.53;;
77158;SDS011;66129;45.890;13.714;2023-05-10T10:37:04;7.80;;;5.43;;
77158;SDS011;66129;45.890;13.714;2023-05-10T10:39:30;8.35;;;5.35;;
77158;SDS011;66129;45.890;13.714;2023-05-10T10:42:01;7.32;;;5.75;;
77158;SDS011;66129;45.890;13.714;2023-05-10T10:52:28;9.07;;;5.65;;
77158;SDS011;66129;45.890;13.714;2023-05-10T10:55:19;8.65;;;5.53;;
77158;SDS011;66129;45.890;13.714;2023-05-10T10:57:50;8.55;;;5.68;;
77158;SDS011;66129;45.890;13.714;2023-05-10T11:02:49;11.02;;;6.60;;
77158;SDS011;66129;45.890;13.714;2023-05-10T11:05:33;8.20;;;5.68;;
77158;SDS011;66129;45.890;13.714;2023-05-10T11:13:33;9.23;;;6.25;;
77158;SDS011;66129;45.890;13.714;2023-05-10T11:16:17;10.45;;;5.90;;
77158;SDS011;66129;45.890;13.714;2023-05-10T11:19:04;10.95;;;6.43;;
77158;SDS011;66129;45.890;13.714;2023-05-10T11:24:15;7.50;;;5.60;;
77158;SDS011;66129;45.890;13.714;2023-05-10T11:26:45;8.02;;;5.78;;
77158;SDS011;66129;45.890;13.714;2023-05-10T11:29:12;7.72;;;5.70;;
77158;SDS011;66129;45.890;13.714;2023-05-10T11:31:48;7.97;;;6.03;;
77158;SDS011;66129;45.890;13.714;2023-05-10T11:34:30;7.63;;;5.68;;
77158;SDS011;66129;45.890;13.714;2023-05-10T11:37:05;8.60;;;6.35;;
77158;SDS011;66129;45.890;13.714;2023-05-10T11:39:45;9.55;;;6.10;;
77158;SDS011;66129;45.890;13.714;2023-05-10T11:42:29;8.82;;;5.88;;
77158;SDS011;66129;45.890;13.714;2023-05-10T11:44:55;10.45;;;6.50;;
77158;SDS011;66129;45.890;13.714;2023-05-10T11:47:24;8.10;;;5.95;;
77158;SDS011;66129;45.890;13.714;2023-05-10T11:49:50;11.68;;;6.53;;
77158;SDS011;66129;45.890;13.714;2023-05-10T11:52:25;9.98;;;6.25;;
77158;SDS011;66129;45.890;13.714;2023-05-10T11:54:54;8.13;;;6.10;;
77158;SDS011;66129;45.890;13.714;2023-05-10T11:57:25;8.82;;;6.30;;
77158;SDS011;66129;45.890;13.714;2023-05-10T12:00:05;8.07;;;6.18;;
77158;SDS011;66129;45.890;13.714;2023-05-10T12:02:34;8.30;;;6.13;;
77158;SDS011;66129;45.890;13.714;2023-05-10T12:05:02;10.57;;;6.10;;
77158;SDS011;66129;45.890;13.714;2023-05-10T12:07:32;7.35;;;6.18;;
77158;SDS011;66129;45.890;13.714;2023-05-10T12:10:13;8.25;;;5.93;;
77158;SDS011;66129;45.890;13.714;2023-05-10T12:12:40;8.00;;;6.68;;
77158;SDS011;66129;45.890;13.714;2023-05-10T12:15:31;9.55;;;5.97;;
77158;SDS011;66129;45.890;13.714;2023-05-10T12:18:01;9.65;;;7.68;;
77158;SDS011;66129;45.890;13.714;2023-05-10T12:20:33;8.27;;;6.40;;
77158;SDS011;66129;45.890;13.714;2023-05-10T12:22:59;11.05;;;8.13;;
77158;SDS011;66129;45.890;13.714;2023-05-10T12:25:41;9.63;;;6.95;;
77158;SDS011;66129;45.890;13.714;2023-05-10T12:28:07;9.77;;;7.15;;
77158;SDS011;66129;45.890;13.714;2023-05-10T12:30:34;10.77;;;6.93;;
77158;SDS011;66129;45.890;13.714;2023-05-10T12:33:13;8.32;;;6.55;;
77158;SDS011;66129;45.890;13.714;2023-05-10T12:38:46;8.48;;;6.40;;
77158;SDS011;66129;45.890;13.714;2023-05-10T12:41:16;10.27;;;6.20;;
77158;SDS011;66129;45.890;13.714;2023-05-10T12:43:58;11.18;;;6.68;;
77158;SDS011;66129;45.890;13.714;2023-05-10T12:46:23;9.52;;;6.32;;
77158;SDS011;66129;45.890;13.714;2023-05-10T12:48:52;7.97;;;5.38;;
77158;SDS011;66129;45.890;13.714;2023-05-10T12:51:19;7.45;;;5.57;;
77158;SDS011;66129;45.890;13.714;2023-05-10T12:53:55;7.28;;;5.25;;
77158;SDS011;66129;45.890;13.714;2023-05-10T12:56:21;7.25;;;5.43;;
77158;SDS011;66129;45.890;13.714;2023-05-10T12:58:58;7.13;;;5.60;;
77158;SDS011;66129;45.890;13.714;2023-05-10T13:01:24;8.60;;;6.00;;
77158;SDS011;66129;45.890;13.714;2023-05-10T13:03:53;7.82;;;5.43;;
77158;SDS011;66129;45.890;13.714;2023-05-10T13:06:24;6.28;;;4.80;;
77158;SDS011;66129;45.890;13.714;2023-05-10T13:09:05;7.72;;;5.47;;
77158;SDS011;66129;45.890;13.714;2023-05-10T13:11:33;6.32;;;5.15;;
77158;SDS011;66129;45.890;13.714;2023-05-10T13:17:37;6.82;;;5.72;;
77158;SDS011;66129;45.890;13.714;2023-05-10T13:23:46;6.82;;;5.45;;
77158;SDS011;66129;45.890;13.714;2023-05-10T13:29:40;6.55;;;5.50;;
77158;SDS011;66129;45.890;13.714;2023-05-10T13:35:58;6.55;;;5.38;;
77158;SDS011;66129;45.890;13.714;2023-05-10T13:38:59;8.93;;;5.05;;
77158;SDS011;66129;45.890;13.714;2023-05-10T13:41:53;8.23;;;5.88;;
77158;SDS011;66129;45.890;13.714;2023-05-10T13:44:20;11.00;;;5.38;;
77158;SDS011;66129;45.890;13.714;2023-05-10T13:47:03;8.30;;;6.05;;
77158;SDS011;66129;45.890;13.714;2023-05-10T13:49:41;7.88;;;5.75;;
77158;SDS011;66129;45.890;13.714;2023-05-10T13:52:40;8.57;;;6.72;;
77158;SDS011;66129;45.890;13.714;2023-05-10T13:55:08;9.50;;;6.00;;
77158;SDS011;66129;45.890;13.714;2023-05-10T13:57:36;9.35;;;6.65;;
77158;SDS011;66129;45.890;13.714;2023-05-10T14:00:02;11.85;;;7.38;;
77158;SDS011;66129;45.890;13.714;2023-05-10T14:02:37;19.52;;;9.38;;
77158;SDS011;66129;45.890;13.714;2023-05-10T14:05:06;18.10;;;10.43;;
77158;SDS011;66129;45.890;13.714;2023-05-10T14:07:46;13.52;;;9.52;;
77158;SDS011;66129;45.890;13.714;2023-05-10T14:10:12;10.25;;;8.18;;
77158;SDS011;66129;45.890;13.714;2023-05-10T14:12:43;8.85;;;6.60;;
77158;SDS011;66129;45.890;13.714;2023-05-10T14:15:09;7.88;;;6.43;;
77158;SDS011;66129;45.890;13.714;2023-05-10T14:17:42;8.00;;;6.75;;
77158;SDS011;66129;45.890;13.714;2023-05-10T14:20:07;8.27;;;6.07;;
77158;SDS011;66129;45.890;13.714;2023-05-10T14:22:33;7.90;;;6.53;;
77158;SDS011;66129;45.890;13.714;2023-05-10T14:25:14;8.30;;;6.43;;
77158;SDS011;66129;45.890;13.714;2023-05-10T14:27:39;10.02;;;6.75;;
77158;SDS011;66129;45.890;13.714;2023-05-10T14:30:05;12.27;;;7.15;;
77158;SDS011;66129;45.890;13.714;2023-05-10T14:35:30;8.23;;;6.13;;
77158;SDS011;66129;45.890;13.714;2023-05-10T14:37:56;7.70;;;6.18;;
77158;SDS011;66129;45.890;13.714;2023-05-10T14:40:38;10.30;;;6.93;;
77158;SDS011;66129;45.890;13.714;2023-05-10T14:43:13;8.73;;;6.85;;
77158;SDS011;66129;45.890;13.714;2023-05-10T14:45:41;7.55;;;6.63;;
77158;SDS011;66129;45.890;13.714;2023-05-10T14:51:11;10.15;;;6.97;;
77158;SDS011;66129;45.890;13.714;2023-05-10T14:53:37;10.73;;;7.88;;
77158;SDS011;66129;45.890;13.714;2023-05-10T14:56:14;7.97;;;6.70;;
77158;SDS011;66129;45.890;13.714;2023-05-10T14:58:51;9.10;;;6.72;;
77158;SDS011;66129;45.890;13.714;2023-05-10T15:04:18;7.72;;;5.90;;
77158;SDS011;66129;45.890;13.714;2023-05-10T15:06:44;8.18;;;6.03;;
77158;SDS011;66129;45.890;13.714;2023-05-10T15:09:16;8.43;;;6.57;;
77158;SDS011;66129;45.890;13.714;2023-05-10T15:11:41;8.20;;;6.05;;
77158;SDS011;66129;45.890;13.714;2023-05-10T15:14:30;10.27;;;6.18;;
77158;SDS011;66129;45.890;13.714;2023-05-10T15:24:15;8.85;;;6.22;;
77158;SDS011;66129;45.890;13.714;2023-05-10T15:30:40;8.02;;;6.60;;
77158;SDS011;66129;45.890;13.714;2023-05-10T15:33:28;9.35;;;6.43;;
77158;SDS011;66129;45.890;13.714;2023-05-10T15:35:53;8.50;;;6.18;;
77158;SDS011;66129;45.890;13.714;2023-05-10T15:38:19;7.60;;;6.28;;
77158;SDS011;66129;45.890;13.714;2023-05-10T15:40:48;8.65;;;6.15;;
77158;SDS011;66129;45.890;13.714;2023-05-10T15:43:13;7.47;;;6.18;;
77158;SDS011;66129;45.890;13.714;2023-05-10T15:45:42;9.27;;;6.75;;
77158;SDS011;66129;45.890;13.714;2023-05-10T15:48:16;7.55;;;5.82;;
77158;SDS011;66129;45.890;13.714;2023-05-10T15:50:45;9.27;;;6.50;;
77158;SDS011;66129;45.890;13.714;2023-05-10T15:53:39;12.10;;;7.10;;
77158;SDS011;66129;45.890;13.714;2023-05-10T15:56:43;8.13;;;6.25;;
77158;SDS011;66129;45.890;13.714;2023-05-10T16:02:30;11.40;;;6.43;;
77158;SDS011;66129;45.890;13.714;2023-05-10T16:04:56;7.60;;;6.32;;
77158;SDS011;66129;45.890;13.714;2023-05-10T16:11:21;7.72;;;6.35;;
77158;SDS011;66129;45.890;13.714;2023-05-10T16:13:49;8.60;;;6.40;;
77158;SDS011;66129;45.890;13.714;2023-05-10T16:16:14;10.20;;;6.40;;
77158;SDS011;66129;45.890;13.714;2023-05-10T16:18:39;8.50;;;6.90;;
77158;SDS011;66129;45.890;13.714;2023-05-10T16:21:07;8.93;;;6.90;;
77158;SDS011;66129;45.890;13.714;2023-05-10T16:23:33;8.52;;;5.97;;
77158;SDS011;66129;45.890;13.714;2023-05-10T16:25:58;7.72;;;6.07;;
77158;SDS011;66129;45.890;13.714;2023-05-10T16:28:24;11.07;;;6.57;;